Time;durP1;ratioP1;P1;durP2;ratioP2;P2;SDS_P1;SDS_P2;PMS_P1;PMS_P2;Temp;Humidity;BMP_temperature;BMP_pressure;BME280_temperature;BME280_humidity;BME280_pressure;Samples;Min_cycle;Max_cycle;Signal;HPM_P1;HPM_P2
2021/07/24 00:00:11;;;;;;;5.80;4.60;;;17.90;99.90;;;;;;5012197;28;20985;-67
2021/07/24 00:02:36;;;;;;;6.25;3.70;;;17.80;99.90;;;;;;5038451;28;20397;-67
2021/07/24 00:05:02;;;;;;;6.35;4.45;;;17.70;99.90;;;;;;5003302;28;20941;-68
2021/07/24 00:07:28;;;;;;;4.10;3.70;;;17.70;99.90;;;;;;5010355;28;20494;-67
2021/07/24 00:09:54;;;;;;;3.70;3.40;;;17.70;99.90;;;;;;5007581;28;20408;-67
2021/07/24 00:12:19;;;;;;;4.43;3.77;;;17.70;99.90;;;;;;5007643;28;20405;-67
2021/07/24 00:14:45;;;;;;;4.43;4.00;;;17.70;99.90;;;;;;5013440;28;20400;-66
2021/07/24 00:17:11;;;;;;;5.37;3.83;;;17.70;99.90;;;;;;5011916;28;20441;-67
2021/07/24 00:19:36;;;;;;;4.45;4.05;;;17.70;99.90;;;;;;5010365;28;20425;-67
2021/07/24 00:22:02;;;;;;;5.80;4.78;;;17.80;99.90;;;;;;5012209;28;20436;-67
2021/07/24 00:24:28;;;;;;;4.60;4.13;;;17.70;99.90;;;;;;5000345;28;20392;-67
2021/07/24 00:26:54;;;;;;;4.57;3.93;;;17.90;99.90;;;;;;4988624;28;20398;-67
2021/07/24 00:29:19;;;;;;;5.05;4.38;;;17.70;99.90;;;;;;5008951;28;20431;-67
2021/07/24 00:31:45;;;;;;;5.15;4.47;;;17.80;99.90;;;;;;5033246;28;20408;-68
2021/07/24 00:34:11;;;;;;;5.57;4.77;;;17.80;99.90;;;;;;5044535;28;20479;-67
2021/07/24 00:36:39;;;;;;;5.28;4.32;;;17.80;99.90;;;;;;4986526;28;20916;-67
2021/07/24 00:39:06;;;;;;;4.90;4.47;;;17.80;99.90;;;;;;4994418;28;20519;-67
2021/07/24 00:41:39;;;;;;;4.18;3.78;;;17.80;99.90;;;;;;5028379;28;20415;-67
2021/07/24 00:44:05;;;;;;;4.17;3.80;;;17.80;99.90;;;;;;5013000;28;20498;-68
2021/07/24 00:46:31;;;;;;;5.67;4.30;;;17.80;99.90;;;;;;5014452;28;20413;-67
2021/07/24 00:49:01;;;;;;;4.60;4.20;;;17.80;99.90;;;;;;5003482;28;20441;-67
2021/07/24 00:51:48;;;;;;;6.80;4.07;;;17.80;99.90;;;;;;5022315;28;20419;-68
2021/07/24 00:54:14;;;;;;;5.53;5.03;;;17.80;99.90;;;;;;5003632;28;20402;-67
2021/07/24 00:56:42;;;;;;;5.28;4.15;;;17.80;99.90;;;;;;4985507;28;20422;-67
2021/07/24 00:59:09;;;;;;;5.30;4.70;;;17.80;99.90;;;;;;5016474;28;20528;-68
2021/07/24 01:01:41;;;;;;;4.15;3.75;;;17.80;99.90;;;;;;5004696;28;20413;-67
2021/07/24 01:04:07;;;;;;;5.28;4.55;;;17.80;99.90;;;;;;5022167;28;20392;-67
2021/07/24 01:06:33;;;;;;;5.97;5.05;;;17.70;99.90;;;;;;4978947;28;21227;-67
2021/07/24 01:09:00;;;;;;;4.90;4.25;;;17.70;99.90;;;;;;5030222;28;20399;-67
2021/07/24 01:11:27;;;;;;;5.30;4.80;;;17.70;99.90;;;;;;5008926;28;20398;-67
2021/07/24 01:13:53;;;;;;;4.33;3.97;;;17.70;99.90;;;;;;5010088;28;20404;-68
2021/07/24 01:16:20;;;;;;;4.32;3.92;;;17.60;99.90;;;;;;5009506;28;20383;-66
2021/07/24 01:18:46;;;;;;;7.90;4.57;;;17.70;99.90;;;;;;4998334;28;20411;-67
2021/07/24 01:21:29;;;;;;;5.57;4.97;;;17.60;99.90;;;;;;5007282;28;20499;-67
2021/07/24 01:23:56;;;;;;;6.38;4.82;;;17.60;99.90;;;;;;5012533;28;20884;-68
2021/07/24 01:26:30;;;;;;;6.45;5.30;;;17.60;99.90;;;;;;5025482;28;20956;-68
2021/07/24 01:28:57;;;;;;;4.95;4.55;;;17.60;99.90;;;;;;5008696;28;20407;-68
2021/07/24 01:31:23;;;;;;;4.57;4.05;;;17.60;99.90;;;;;;5002862;28;20719;-68
2021/07/24 01:33:49;;;;;;;6.60;4.90;;;17.60;99.90;;;;;;5023216;28;20391;-68
2021/07/24 01:36:15;;;;;;;4.78;4.28;;;17.60;99.90;;;;;;5006707;28;20401;-66
2021/07/24 01:38:41;;;;;;;5.85;5.30;;;17.60;99.90;;;;;;4989107;28;20409;-66
2021/07/24 01:41:11;;;;;;;7.05;5.57;;;17.60;99.90;;;;;;5002351;28;20997;-67
2021/07/24 01:43:38;;;;;;;5.60;4.90;;;17.50;99.90;;;;;;5011429;28;20400;-67
2021/07/24 01:46:05;;;;;;;4.78;4.25;;;17.50;99.90;;;;;;5042760;28;20412;-67
2021/07/24 01:53:59;;;;;;;8.38;5.43;;;17.60;99.90;;;;;;5024366;28;20519;-67
2021/07/24 01:56:28;;;;;;;7.10;4.78;;;17.60;99.90;;;;;;4981327;28;20410;-68
2021/07/24 01:58:54;;;;;;;5.60;5.10;;;17.50;99.90;;;;;;5011092;28;20440;-68
2021/07/24 02:01:24;;;;;;;5.32;4.82;;;17.50;99.90;;;;;;4994538;28;20458;-67
2021/07/24 02:03:56;;;;;;;4.93;4.43;;;17.50;99.90;;;;;;5004078;28;20396;-68
2021/07/24 02:06:41;;;;;;;5.10;4.60;;;17.50;99.90;;;;;;4988894;28;20534;-68
2021/07/24 02:09:23;;;;;;;6.07;4.50;;;17.50;99.90;;;;;;4997061;28;20412;-68
2021/07/24 02:11:56;;;;;;;5.28;4.70;;;17.50;99.90;;;;;;4993834;28;20437;-67
2021/07/24 02:14:24;;;;;;;5.43;4.93;;;17.50;99.90;;;;;;4988565;28;20498;-69
2021/07/24 02:17:01;;;;;;;5.10;4.60;;;17.50;99.90;;;;;;4988167;28;20466;-66
2021/07/24 02:19:35;;;;;;;6.60;4.40;;;17.50;99.90;;;;;;5008925;28;20520;-68
2021/07/24 02:22:01;;;;;;;10.15;5.47;;;17.50;99.90;;;;;;5008348;28;20836;-69
2021/07/24 02:24:27;;;;;;;5.73;4.87;;;17.60;99.90;;;;;;5008531;28;20953;-68
2021/07/24 02:26:52;;;;;;;6.38;5.13;;;17.50;99.90;;;;;;5029139;28;20920;-69
2021/07/24 02:29:32;;;;;;;8.93;5.15;;;17.50;99.90;;;;;;5007935;28;20466;-68
2021/07/24 02:31:58;;;;;;;5.10;4.60;;;17.50;99.90;;;;;;4996100;28;20418;-68
2021/07/24 02:34:24;;;;;;;5.20;4.67;;;17.50;99.90;;;;;;4992405;28;20430;-67
2021/07/24 02:36:49;;;;;;;6.65;5.35;;;17.50;99.90;;;;;;4982361;28;20491;-68
2021/07/24 02:39:16;;;;;;;4.97;4.47;;;17.50;99.90;;;;;;5026344;28;20396;-68
2021/07/24 02:41:41;;;;;;;6.00;5.33;;;17.50;99.90;;;;;;4996027;28;20394;-68
2021/07/24 02:44:07;;;;;;;5.80;5.30;;;17.40;99.90;;;;;;5005321;28;20439;-67
2021/07/24 02:46:34;;;;;;;6.45;5.78;;;17.40;99.90;;;;;;4989659;28;20972;-66
2021/07/24 02:49:00;;;;;;;5.82;5.22;;;17.30;99.90;;;;;;5031077;28;20902;-67
2021/07/24 02:51:29;;;;;;;5.18;4.20;;;17.30;99.90;;;;;;4998154;28;20416;-67
2021/07/24 02:53:56;;;;;;;5.63;5.03;;;17.40;99.90;;;;;;5004143;28;20474;-69
2021/07/24 02:56:22;;;;;;;5.83;5.23;;;17.40;99.90;;;;;;5005807;28;20499;-67
2021/07/24 02:58:48;;;;;;;5.50;4.85;;;17.50;99.90;;;;;;5020860;28;20414;-68
2021/07/24 03:01:14;;;;;;;6.47;5.60;;;17.50;99.90;;;;;;5017688;28;20401;-67
2021/07/24 03:03:39;;;;;;;5.78;4.88;;;17.50;99.90;;;;;;4999813;28;20482;-68
2021/07/24 03:06:05;;;;;;;6.07;4.77;;;17.50;99.90;;;;;;4993916;28;20387;-68
2021/07/24 03:08:31;;;;;;;10.07;5.22;;;17.50;99.90;;;;;;4999574;28;20393;-68
2021/07/24 03:10:57;;;;;;;5.80;5.13;;;17.50;99.90;;;;;;5018164;28;20394;-68
2021/07/24 03:13:22;;;;;;;5.57;5.07;;;17.50;99.90;;;;;;5011923;28;20421;-67
2021/07/24 03:15:48;;;;;;;5.57;5.00;;;17.50;99.90;;;;;;4989636;28;20412;-67
2021/07/24 03:18:14;;;;;;;6.57;5.32;;;17.50;99.90;;;;;;4990938;28;20420;-68
2021/07/24 03:20:40;;;;;;;5.23;4.77;;;17.60;99.90;;;;;;5007821;28;20768;-68
2021/07/24 03:23:05;;;;;;;5.30;4.80;;;17.60;99.90;;;;;;4997165;28;20387;-68
2021/07/24 03:25:31;;;;;;;5.03;4.57;;;17.60;99.90;;;;;;4997686;28;20406;-67
2021/07/24 03:27:57;;;;;;;6.57;5.32;;;17.50;99.90;;;;;;5017519;28;20481;-68
2021/07/24 03:30:22;;;;;;;6.20;5.63;;;17.50;99.90;;;;;;5013700;28;20413;-68
2021/07/24 03:32:48;;;;;;;6.13;4.65;;;17.50;99.90;;;;;;5009919;28;20779;-68
2021/07/24 03:35:14;;;;;;;6.30;5.07;;;17.50;99.90;;;;;;5000627;28;20425;-67
2021/07/24 03:37:40;;;;;;;5.85;5.25;;;17.50;99.90;;;;;;4995344;28;20397;-68
2021/07/24 03:40:06;;;;;;;5.00;4.50;;;17.50;99.90;;;;;;4991623;28;20413;-68
2021/07/24 03:42:32;;;;;;;7.28;5.60;;;17.50;99.90;;;;;;5004140;28;21018;-68
2021/07/24 03:44:57;;;;;;;5.70;5.20;;;17.50;99.90;;;;;;5037310;28;20404;-69
2021/07/24 03:47:23;;;;;;;5.78;5.18;;;17.50;99.90;;;;;;5032463;28;20743;-68
2021/07/24 03:49:49;;;;;;;6.27;5.43;;;17.50;99.90;;;;;;5022867;28;20463;-68
2021/07/24 03:52:14;;;;;;;5.63;5.13;;;17.40;99.90;;;;;;4997329;28;20398;-67
2021/07/24 03:54:40;;;;;;;6.32;5.72;;;17.40;99.90;;;;;;4992277;28;20802;-67
2021/07/24 03:57:06;;;;;;;5.63;5.00;;;17.40;99.90;;;;;;5001072;28;20381;-68
2021/07/24 03:59:32;;;;;;;7.35;5.18;;;17.40;99.90;;;;;;4995025;28;20413;-67
2021/07/24 04:01:58;;;;;;;6.07;4.93;;;17.30;99.90;;;;;;4998845;28;20452;-67
2021/07/24 04:04:24;;;;;;;6.75;5.47;;;17.40;99.90;;;;;;4991076;28;20409;-68
2021/07/24 04:06:51;;;;;;;5.93;4.82;;;17.40;99.90;;;;;;4991590;28;20400;-68
2021/07/24 04:09:17;;;;;;;8.18;5.53;;;17.50;99.90;;;;;;4989530;28;20393;-67
2021/07/24 04:11:43;;;;;;;5.32;4.75;;;17.50;99.90;;;;;;4997189;28;21032;-67
2021/07/24 04:14:08;;;;;;;5.30;4.80;;;17.50;99.90;;;;;;4993051;28;20788;-67
2021/07/24 04:16:34;;;;;;;5.05;4.57;;;17.50;99.90;;;;;;5020586;28;20494;-67
2021/07/24 04:19:00;;;;;;;4.90;4.13;;;17.60;99.90;;;;;;5008005;28;20405;-68
2021/07/24 04:21:26;;;;;;;7.07;5.88;;;17.60;99.90;;;;;;5055508;28;20471;-68
2021/07/24 04:23:52;;;;;;;4.63;4.13;;;17.60;99.90;;;;;;5009631;28;20417;-68
2021/07/24 04:26:18;;;;;;;5.10;4.60;;;17.60;99.90;;;;;;4991825;28;20485;-68
2021/07/24 04:28:44;;;;;;;5.28;4.78;;;17.70;99.90;;;;;;5001601;28;20804;-67
2021/07/24 04:31:13;;;;;;;6.15;5.50;;;17.80;99.90;;;;;;5005375;28;20406;-69
2021/07/24 04:33:39;;;;;;;4.82;4.32;;;17.80;99.90;;;;;;5009215;28;20403;-68
2021/07/24 04:36:04;;;;;;;5.53;4.70;;;17.80;99.90;;;;;;4995217;28;20410;-67
2021/07/24 04:38:30;;;;;;;5.10;4.53;;;17.90;99.90;;;;;;4998542;28;20403;-68
2021/07/24 04:40:56;;;;;;;7.55;4.90;;;17.90;99.90;;;;;;5024864;28;20422;-68
2021/07/24 04:43:21;;;;;;;5.30;4.80;;;18.00;99.90;;;;;;5002831;28;20387;-68
2021/07/24 04:45:47;;;;;;;5.72;5.18;;;18.00;99.90;;;;;;5026660;28;20907;-68
2021/07/24 04:48:13;;;;;;;5.30;4.80;;;18.00;99.90;;;;;;5018015;28;20469;-68
2021/07/24 04:50:42;;;;;;;5.23;4.73;;;18.10;99.90;;;;;;4997499;28;20415;-68
2021/07/24 04:53:09;;;;;;;5.93;5.20;;;18.10;99.90;;;;;;4986797;28;20544;-68
2021/07/24 04:55:37;;;;;;;6.68;5.68;;;18.10;99.90;;;;;;5020800;28;20397;-68
2021/07/24 04:58:04;;;;;;;6.65;5.55;;;18.20;99.90;;;;;;5005735;28;20799;-68
2021/07/24 05:00:29;;;;;;;7.13;5.15;;;18.20;99.90;;;;;;5008960;28;20415;-68
2021/07/24 05:02:55;;;;;;;5.85;5.25;;;18.20;99.90;;;;;;5011747;28;20432;-68
2021/07/24 05:05:21;;;;;;;5.50;5.00;;;18.30;99.90;;;;;;5058568;28;20393;-68
2021/07/24 05:07:46;;;;;;;6.03;5.50;;;18.30;99.90;;;;;;5027070;28;20409;-68
2021/07/24 05:10:12;;;;;;;6.67;5.57;;;18.30;99.90;;;;;;4999556;28;20918;-67
2021/07/24 05:12:39;;;;;;;6.45;5.32;;;18.40;99.90;;;;;;5022903;28;20481;-68
2021/07/24 05:15:05;;;;;;;6.05;5.07;;;18.50;99.90;;;;;;5029999;28;20406;-69
2021/07/24 05:17:31;;;;;;;5.18;4.70;;;18.70;99.90;;;;;;5019668;28;21210;-68
2021/07/24 05:19:57;;;;;;;5.75;5.15;;;18.80;99.90;;;;;;5010950;28;20401;-68
2021/07/24 05:22:22;;;;;;;5.47;4.97;;;19.00;99.90;;;;;;5013696;28;20420;-68
2021/07/24 05:24:48;;;;;;;6.80;6.10;;;19.10;99.90;;;;;;5013170;28;20494;-70
2021/07/24 05:27:14;;;;;;;5.82;5.22;;;19.30;99.90;;;;;;4981318;28;20383;-70
2021/07/24 05:29:40;;;;;;;6.78;5.65;;;19.40;99.90;;;;;;4988367;28;20400;-70
2021/07/24 05:32:06;;;;;;;7.10;5.63;;;19.50;99.90;;;;;;4991510;28;20399;-70
2021/07/24 05:34:32;;;;;;;6.03;5.43;;;19.60;99.90;;;;;;4994712;28;20803;-70
2021/07/24 05:36:58;;;;;;;5.78;5.28;;;19.60;99.90;;;;;;5003172;28;20410;-70
2021/07/24 05:39:23;;;;;;;6.43;5.17;;;19.70;99.90;;;;;;5013565;28;21002;-71
2021/07/24 05:41:49;;;;;;;5.00;4.53;;;19.80;99.90;;;;;;5020411;28;20401;-69
2021/07/24 05:44:17;;;;;;;5.25;4.75;;;20.00;99.90;;;;;;5022364;28;20443;-69
2021/07/24 05:46:45;;;;;;;6.35;5.63;;;20.20;99.90;;;;;;4989333;28;20415;-69
2021/07/24 05:49:10;;;;;;;7.07;5.80;;;20.30;99.90;;;;;;5001804;28;20950;-68
2021/07/24 05:51:39;;;;;;;6.60;4.73;;;20.40;99.90;;;;;;5021508;28;20422;-68
2021/07/24 05:54:05;;;;;;;7.43;5.40;;;20.50;99.90;;;;;;5013697;28;20412;-68
2021/07/24 05:56:31;;;;;;;6.93;5.38;;;20.70;99.90;;;;;;5025642;28;22982;-68
2021/07/24 05:58:57;;;;;;;6.27;5.67;;;20.80;99.90;;;;;;5011244;28;20428;-69
2021/07/24 06:01:23;;;;;;;6.45;5.40;;;21.00;99.90;;;;;;4995970;28;20431;-68
2021/07/24 06:03:49;;;;;;;6.90;5.47;;;21.00;99.90;;;;;;5035280;28;20402;-71
2021/07/24 06:06:14;;;;;;;6.28;5.45;;;21.10;99.90;;;;;;5036866;28;20417;-70
2021/07/24 06:08:40;;;;;;;6.80;5.90;;;21.20;99.90;;;;;;5025065;28;20421;-71
2021/07/24 06:11:06;;;;;;;6.22;5.63;;;21.30;99.90;;;;;;5004976;28;20412;-71
2021/07/24 06:13:32;;;;;;;5.82;4.57;;;21.40;99.90;;;;;;5022035;28;20772;-71
2021/07/24 06:15:58;;;;;;;7.50;6.32;;;21.50;99.90;;;;;;5010749;28;20403;-71
2021/07/24 06:18:24;;;;;;;5.53;5.00;;;21.70;99.90;;;;;;5010875;28;20409;-69
2021/07/24 06:20:49;;;;;;;5.55;4.75;;;21.80;99.90;;;;;;5026200;28;21099;-69
2021/07/24 06:23:15;;;;;;;6.27;5.43;;;22.00;99.90;;;;;;5043552;28;20390;-68
2021/07/24 06:25:44;;;;;;;5.97;5.47;;;22.20;99.90;;;;;;5025157;28;20409;-69
2021/07/24 06:28:10;;;;;;;6.95;5.43;;;22.40;99.90;;;;;;5035968;28;20396;-68
2021/07/24 06:30:37;;;;;;;7.05;5.55;;;22.50;99.90;;;;;;5007932;28;20389;-69
2021/07/24 06:33:03;;;;;;;5.95;5.35;;;22.70;99.90;;;;;;4989705;28;20535;-68
2021/07/24 06:35:29;;;;;;;6.60;5.53;;;22.70;99.90;;;;;;4982010;28;21118;-68
2021/07/24 06:37:54;;;;;;;5.15;4.65;;;22.90;99.90;;;;;;5003857;28;20397;-69
2021/07/24 06:40:20;;;;;;;5.30;4.80;;;23.10;99.90;;;;;;4984808;28;20470;-69
2021/07/24 06:42:46;;;;;;;5.45;4.95;;;23.20;99.90;;;;;;5013778;28;20399;-69
2021/07/24 06:45:12;;;;;;;6.57;5.40;;;23.20;99.90;;;;;;4984749;28;20513;-70
2021/07/24 06:47:37;;;;;;;6.13;5.57;;;23.30;99.90;;;;;;4996434;28;20405;-71
2021/07/24 06:50:04;;;;;;;6.10;5.50;;;23.40;99.90;;;;;;4999590;28;20407;-70
2021/07/24 06:52:29;;;;;;;6.60;6.00;;;23.50;99.90;;;;;;4991327;28;20417;-70
2021/07/24 06:54:55;;;;;;;6.88;5.57;;;23.50;99.90;;;;;;5002619;28;20403;-70
2021/07/24 06:57:20;;;;;;;5.77;5.03;;;23.80;99.90;;;;;;4985319;28;20418;-70
2021/07/24 06:59:46;;;;;;;7.57;5.72;;;23.90;99.90;;;;;;5028923;28;20436;-70
2021/07/24 07:02:12;;;;;;;6.03;5.35;;;24.00;99.90;;;;;;5010840;28;20397;-69
2021/07/24 07:04:38;;;;;;;6.33;5.70;;;24.30;99.90;;;;;;5007838;28;20398;-70
2021/07/24 07:07:07;;;;;;;7.47;5.78;;;24.30;99.90;;;;;;5000013;28;20453;-69
2021/07/24 07:09:34;;;;;;;6.38;5.78;;;24.40;99.90;;;;;;5022518;28;20428;-71
2021/07/24 07:11:59;;;;;;;7.38;5.47;;;24.60;99.90;;;;;;5000422;28;20428;-72
2021/07/24 07:14:25;;;;;;;5.80;5.23;;;24.70;99.90;;;;;;4997237;28;20876;-69
2021/07/24 07:16:51;;;;;;;6.18;5.60;;;25.00;99.90;;;;;;5005569;28;20409;-72
2021/07/24 07:19:18;;;;;;;5.93;5.27;;;25.00;99.90;;;;;;4993006;28;20405;-72
2021/07/24 07:21:44;;;;;;;6.67;5.47;;;25.10;99.90;;;;;;4989003;28;20457;-76
2021/07/24 07:24:09;;;;;;;5.38;4.88;;;25.10;99.90;;;;;;5004014;28;20430;-74
2021/07/24 07:26:35;;;;;;;7.00;5.37;;;25.20;99.90;;;;;;5025483;28;20406;-73
2021/07/24 07:29:04;;;;;;;6.03;5.40;;;25.30;99.90;;;;;;5028746;28;20424;-76
2021/07/24 07:31:33;;;;;;;5.63;4.72;;;25.40;99.90;;;;;;4986962;28;20414;-74
2021/07/24 07:34:00;;;;;;;11.27;4.95;;;25.50;99.90;;;;;;4989905;28;20395;-73
2021/07/24 07:36:25;;;;;;;5.05;4.55;;;25.70;99.90;;;;;;5013807;28;20410;-72
2021/07/24 07:38:51;;;;;;;7.00;5.07;;;25.90;99.90;;;;;;4997669;28;20403;-72
2021/07/24 07:41:20;;;;;;;7.50;5.07;;;25.90;99.90;;;;;;5028549;28;20474;-72
2021/07/24 07:43:46;;;;;;;5.38;4.88;;;26.10;99.90;;;;;;5004409;28;20403;-72
2021/07/24 07:46:12;;;;;;;7.13;4.93;;;26.40;99.90;;;;;;5046913;28;20399;-73
2021/07/24 07:48:37;;;;;;;5.73;4.90;;;26.50;99.90;;;;;;4990970;28;20474;-72
2021/07/24 07:51:03;;;;;;;5.13;4.70;;;26.70;99.90;;;;;;5011297;28;20882;-73
2021/07/24 07:53:29;;;;;;;5.70;4.97;;;26.80;99.90;;;;;;5009304;28;20408;-73
2021/07/24 07:55:55;;;;;;;6.93;5.25;;;26.90;99.90;;;;;;5022093;28;20387;-74
2021/07/24 07:58:21;;;;;;;6.40;4.72;;;27.00;99.90;;;;;;5005611;28;20385;-74
2021/07/24 08:00:46;;;;;;;5.07;4.57;;;27.20;99.90;;;;;;5008018;28;20545;-74
2021/07/24 08:03:12;;;;;;;4.77;4.33;;;27.30;99.90;;;;;;4990775;28;20397;-75
2021/07/24 08:05:38;;;;;;;7.35;5.07;;;27.50;99.90;;;;;;4991338;28;20950;-74
2021/07/24 08:08:03;;;;;;;5.05;4.65;;;27.70;99.90;;;;;;5020635;28;20494;-75
2021/07/24 08:10:29;;;;;;;4.93;4.50;;;27.70;99.90;;;;;;5023397;28;20410;-75
2021/07/24 08:12:55;;;;;;;5.38;4.85;;;27.80;99.90;;;;;;5026579;28;20418;-74
2021/07/24 08:15:21;;;;;;;5.13;4.65;;;27.90;99.90;;;;;;5007065;28;20398;-75
2021/07/24 08:17:46;;;;;;;5.00;4.40;;;28.00;99.90;;;;;;4988404;28;20873;-75
2021/07/24 08:20:12;;;;;;;4.80;4.25;;;28.20;99.90;;;;;;5004045;28;20412;-74
2021/07/24 08:22:38;;;;;;;6.45;4.20;;;28.20;99.90;;;;;;5036190;28;20393;-73
2021/07/24 08:25:04;;;;;;;4.57;4.17;;;28.20;99.90;;;;;;5018282;28;21055;-74
2021/07/24 08:27:33;;;;;;;3.90;3.60;;;28.50;99.90;;;;;;4989199;28;20393;-75
2021/07/24 08:29:59;;;;;;;3.83;3.45;;;28.50;99.90;;;;;;5006031;28;20397;-73
2021/07/24 08:32:25;;;;;;;5.20;4.70;;;28.90;99.90;;;;;;5007942;28;20395;-72
2021/07/24 08:34:51;;;;;;;5.63;5.13;;;29.00;99.90;;;;;;5045074;28;20397;-74
2021/07/24 08:37:17;;;;;;;5.28;4.78;;;29.10;99.90;;;;;;5023949;28;20456;-73
2021/07/24 08:39:43;;;;;;;10.02;5.38;;;28.90;99.90;;;;;;5012112;28;20404;-72
2021/07/24 08:42:08;;;;;;;5.93;4.55;;;28.90;99.90;;;;;;5032783;28;20404;-76
2021/07/24 08:44:37;;;;;;;5.00;4.40;;;29.00;99.90;;;;;;5007252;28;20766;-74
2021/07/24 08:47:03;;;;;;;7.25;4.50;;;29.20;99.90;;;;;;5019410;28;20479;-73
2021/07/24 08:49:29;;;;;;;5.17;4.20;;;29.30;99.90;;;;;;5022442;28;20410;-73
2021/07/24 08:51:55;;;;;;;4.93;4.50;;;29.60;99.90;;;;;;4995333;28;20397;-73
2021/07/24 08:54:21;;;;;;;4.10;3.58;;;29.70;99.90;;;;;;4986419;28;20403;-73
2021/07/24 08:56:46;;;;;;;6.43;4.00;;;29.70;99.90;;;;;;5007507;28;20406;-73
2021/07/24 08:59:16;;;;;;;4.97;3.60;;;30.00;99.90;;;;;;5029994;28;20408;-73
2021/07/24 09:01:42;;;;;;;4.38;3.97;;;30.20;99.90;;;;;;5003942;28;20494;-73
2021/07/24 09:04:08;;;;;;;4.90;4.50;;;30.50;99.80;;;;;;4997654;28;20865;-74
2021/07/24 09:06:34;;;;;;;4.43;4.03;;;30.50;99.50;;;;;;5025071;28;20395;-76
2021/07/24 09:08:59;;;;;;;4.32;3.95;;;30.50;98.10;;;;;;5042412;28;20429;-74
2021/07/24 09:11:25;;;;;;;4.30;3.90;;;30.50;99.90;;;;;;5023735;28;20401;-74
2021/07/24 09:13:51;;;;;;;3.40;3.10;;;30.70;98.80;;;;;;5019495;28;20404;-75
2021/07/24 09:16:16;;;;;;;3.97;3.43;;;30.50;94.10;;;;;;5026156;28;21120;-76
2021/07/24 09:18:42;;;;;;;3.33;3.03;;;30.50;92.70;;;;;;5001653;28;20607;-75
2021/07/24 09:21:08;;;;;;;3.38;2.90;;;30.60;93.40;;;;;;5000795;28;20403;-75
2021/07/24 09:23:39;;;;;;;3.63;3.23;;;30.60;91.60;;;;;;5032533;28;20489;-75
2021/07/24 09:26:05;;;;;;;3.53;3.17;;;30.60;91.30;;;;;;5006311;28;20396;-75
2021/07/24 09:28:32;;;;;;;3.78;3.45;;;30.60;89.30;;;;;;5011809;28;20412;-75
2021/07/24 09:30:57;;;;;;;3.58;3.28;;;30.60;88.50;;;;;;5020992;28;20434;-75
2021/07/24 09:33:23;;;;;;;3.67;3.20;;;30.70;90.10;;;;;;5012510;28;20465;-76
2021/07/24 09:35:55;;;;;;;4.37;3.43;;;30.70;89.40;;;;;;4996368;28;20837;-75
2021/07/24 09:38:34;;;;;;;5.00;3.40;;;30.90;91.60;;;;;;5002516;28;20410;-74
2021/07/24 09:41:01;;;;;;;3.92;3.50;;;31.00;88.10;;;;;;4996340;28;20407;-76
2021/07/24 09:43:41;;;;;;;3.70;3.40;;;31.00;88.00;;;;;;5018053;28;20818;-74
2021/07/24 09:46:10;;;;;;;3.77;3.17;;;31.00;85.80;;;;;;4982429;28;20441;-75
2021/07/24 09:48:35;;;;;;;3.27;2.97;;;31.20;85.50;;;;;;5004547;28;20405;-76
2021/07/24 09:51:01;;;;;;;3.45;3.10;;;31.40;82.00;;;;;;4995317;28;20504;-75
2021/07/24 09:53:34;;;;;;;3.45;3.15;;;31.60;88.10;;;;;;4991207;28;20396;-75
2021/07/24 09:56:00;;;;;;;3.83;3.37;;;31.90;85.70;;;;;;5039761;28;20461;-75
2021/07/24 09:58:26;;;;;;;3.75;3.42;;;32.20;85.80;;;;;;5003886;28;20405;-76
2021/07/24 10:01:01;;;;;;;3.65;3.33;;;31.90;82.30;;;;;;5018462;28;20413;-74
2021/07/24 10:03:28;;;;;;;4.15;3.33;;;32.10;78.90;;;;;;5018260;28;20477;-72
2021/07/24 10:05:54;;;;;;;3.50;3.25;;;32.40;85.00;;;;;;5027058;28;20401;-72
2021/07/24 10:08:19;;;;;;;5.17;3.20;;;32.50;79.40;;;;;;5002049;28;20447;-73
2021/07/24 10:10:45;;;;;;;3.90;3.50;;;32.80;86.10;;;;;;4993407;28;20414;-73
2021/07/24 10:13:13;;;;;;;3.55;3.17;;;33.00;76.70;;;;;;5023536;28;20407;-72
2021/07/24 10:15:40;;;;;;;5.07;3.67;;;33.20;80.10;;;;;;5004361;28;20397;-72
2021/07/24 10:18:07;;;;;;;3.23;3.03;;;33.10;78.10;;;;;;4999635;28;20399;-73
2021/07/24 10:20:38;;;;;;;3.60;3.30;;;33.20;77.50;;;;;;5014946;28;20423;-73
2021/07/24 10:23:04;;;;;;;3.90;3.60;;;33.30;74.70;;;;;;5024021;28;20432;-73
2021/07/24 10:25:29;;;;;;;5.15;3.60;;;33.60;79.70;;;;;;5041566;28;20409;-73
2021/07/24 10:27:55;;;;;;;3.60;3.30;;;33.90;76.60;;;;;;4988809;28;20475;-73
2021/07/24 10:30:28;;;;;;;4.15;3.30;;;34.00;76.70;;;;;;5036503;28;20395;-74
2021/07/24 10:32:53;;;;;;;4.00;3.70;;;33.90;70.60;;;;;;5006989;28;20397;-73
2021/07/24 10:35:38;;;;;;;4.67;3.50;;;33.60;73.40;;;;;;5036114;28;21868;-74
2021/07/24 10:38:26;;;;;;;5.00;3.33;;;33.70;74.80;;;;;;5033390;28;20393;-74
2021/07/24 10:40:52;;;;;;;3.80;3.43;;;33.80;71.50;;;;;;5031373;28;20494;-74
2021/07/24 10:43:56;;;;;;;3.75;3.45;;;33.30;71.80;;;;;;5008709;28;20468;-74
2021/07/24 10:46:21;;;;;;;5.13;3.67;;;33.50;76.30;;;;;;5039409;28;20401;-74
2021/07/24 10:48:47;;;;;;;3.80;3.50;;;33.80;70.20;;;;;;5008272;28;20739;-74
2021/07/24 10:51:17;;;;;;;3.20;2.90;;;34.10;75.80;;;;;;5028723;28;20465;-74
2021/07/24 10:54:00;;;;;;;3.75;3.45;;;34.60;72.50;;;;;;5031499;28;20573;-74
2021/07/24 10:56:39;;;;;;;5.07;3.53;;;34.30;68.20;;;;;;5024154;28;20409;-73
2021/07/24 10:59:16;;;;;;;3.25;2.95;;;34.20;68.80;;;;;;5015911;28;20410;-74
2021/07/24 11:01:46;;;;;;;4.07;3.67;;;34.70;75.40;;;;;;5015249;28;20427;-73
2021/07/24 11:04:36;;;;;;;3.80;3.50;;;35.00;72.30;;;;;;5008474;28;20405;-74
2021/07/24 11:07:21;;;;;;;3.90;3.03;;;35.00;70.30;;;;;;4978594;28;20402;-74
2021/07/24 11:09:56;;;;;;;3.75;3.45;;;35.00;71.50;;;;;;5027237;28;20400;-74
2021/07/24 11:12:37;;;;;;;7.90;3.78;;;34.60;69.60;;;;;;5022859;28;20412;-74
2021/07/24 11:15:04;;;;;;;3.10;2.90;;;34.80;71.20;;;;;;5007282;28;20405;-74
2021/07/24 11:17:29;;;;;;;5.80;3.38;;;35.10;67.90;;;;;;5006631;28;20912;-74
2021/07/24 11:19:59;;;;;;;5.47;3.30;;;35.00;71.80;;;;;;5007804;28;20415;-74
2021/07/24 11:22:28;;;;;;;3.13;2.92;;;35.30;66.40;;;;;;4983771;28;20451;-74
2021/07/24 11:24:54;;;;;;;3.33;3.03;;;35.60;67.80;;;;;;5014501;28;20768;-73
2021/07/24 11:27:33;;;;;;;3.95;3.00;;;35.70;67.70;;;;;;5046851;28;20403;-73
2021/07/24 11:30:07;;;;;;;4.00;3.30;;;35.80;64.70;;;;;;5020890;28;20399;-74
2021/07/24 11:32:39;;;;;;;3.40;3.10;;;35.80;62.80;;;;;;5027437;28;20374;-74
2021/07/24 11:35:06;;;;;;;3.13;2.83;;;35.70;62.70;;;;;;5027110;28;20390;-75
2021/07/24 11:37:39;;;;;;;3.27;3.07;;;35.30;59.60;;;;;;5006420;28;20938;-74
2021/07/24 11:40:06;;;;;;;3.50;3.20;;;35.50;65.50;;;;;;4998546;28;20401;-74
2021/07/24 11:42:32;;;;;;;3.47;3.17;;;35.80;63.80;;;;;;5010016;28;20410;-74
2021/07/24 11:44:57;;;;;;;3.10;2.67;;;36.30;63.30;;;;;;5011084;28;20409;-74
2021/07/24 11:47:23;;;;;;;6.55;3.63;;;36.90;65.50;;;;;;5006676;28;20416;-74
2021/07/24 11:49:48;;;;;;;3.03;2.80;;;36.40;58.80;;;;;;5004833;28;20404;-74
2021/07/24 11:52:14;;;;;;;3.35;2.95;;;36.50;62.70;;;;;;5004210;28;20403;-74
2021/07/24 11:54:40;;;;;;;4.60;3.13;;;36.60;61.70;;;;;;5063346;28;20420;-74
2021/07/24 11:57:06;;;;;;;3.65;2.80;;;36.50;62.80;;;;;;5019042;28;20493;-74
2021/07/24 11:59:34;;;;;;;4.60;3.40;;;36.70;60.60;;;;;;5018004;28;21071;-74
2021/07/24 12:02:01;;;;;;;3.50;3.20;;;37.00;58.80;;;;;;5017984;28;20472;-74
2021/07/24 12:04:27;;;;;;;3.03;2.83;;;37.10;60.20;;;;;;5014159;28;20485;-74
2021/07/24 12:06:59;;;;;;;3.40;3.10;;;36.70;62.50;;;;;;5006849;28;20847;-74
2021/07/24 12:09:25;;;;;;;3.17;2.70;;;36.20;60.70;;;;;;5029734;28;20410;-74
2021/07/24 12:11:55;;;;;;;3.50;3.20;;;36.30;60.10;;;;;;5010226;28;20402;-74
2021/07/24 12:14:22;;;;;;;2.73;2.53;;;36.20;56.60;;;;;;4998845;28;20408;-74
2021/07/24 12:16:49;;;;;;;3.40;3.10;;;36.50;60.90;;;;;;5009288;28;20407;-73
2021/07/24 12:19:17;;;;;;;3.10;2.90;;;36.40;56.60;;;;;;4993382;28;20419;-74
2021/07/24 12:21:44;;;;;;;2.97;2.67;;;36.20;61.20;;;;;;4998087;28;20419;-73
2021/07/24 12:24:10;;;;;;;3.28;2.97;;;35.90;60.00;;;;;;5022353;28;20396;-74
2021/07/24 12:26:45;;;;;;;4.25;3.10;;;35.60;61.30;;;;;;5032667;28;20401;-74
2021/07/24 12:29:10;;;;;;;3.20;2.90;;;35.60;64.90;;;;;;5005448;28;21068;-74
2021/07/24 12:31:55;;;;;;;3.03;2.83;;;36.20;69.30;;;;;;5005363;28;20419;-75
2021/07/24 12:34:22;;;;;;;3.33;3.03;;;36.70;65.80;;;;;;5006902;28;20415;-75
2021/07/24 12:36:56;;;;;;;3.50;3.08;;;37.30;72.00;;;;;;4996330;28;20457;-74
2021/07/24 12:39:22;;;;;;;3.28;2.97;;;37.80;65.00;;;;;;4990353;28;20400;-74
2021/07/24 12:42:08;;;;;;;3.00;2.80;;;37.90;61.00;;;;;;5021489;28;20447;-74
2021/07/24 12:44:52;;;;;;;3.28;2.85;;;37.80;62.40;;;;;;5023314;28;20433;-74
2021/07/24 12:47:18;;;;;;;3.13;2.80;;;37.60;62.10;;;;;;5027943;28;20942;-75
2021/07/24 12:49:45;;;;;;;3.10;2.90;;;37.30;62.90;;;;;;5022187;28;20409;-75
2021/07/24 12:52:31;;;;;;;3.10;2.90;;;37.20;63.70;;;;;;5005578;28;20463;-74